Time;durP1;ratioP1;P1;durP2;ratioP2;P2;SDS_P1;SDS_P2;PMS_P1;PMS_P2;Temp;Humidity;BMP_temperature;BMP_pressure;BME280_temperature;BME280_humidity;BME280_pressure;Samples;Min_cycle;Max_cycle;Signal;HPM_P1;HPM_P2
2022/07/12 00:00:50;;;;;;;2.53;2.33;;;24.40;99.90;;;;;;4066324;29;20216;-76
2022/07/12 00:02:52;;;;;;;2.55;2.30;;;24.40;99.90;;;;;;4063843;29;20637;-75
2022/07/12 00:04:54;;;;;;;2.95;2.60;;;24.40;99.90;;;;;;4065937;29;20221;-76
2022/07/12 00:06:58;;;;;;;2.85;2.55;;;24.40;99.90;;;;;;4066344;29;20738;-76
2022/07/12 00:09:00;;;;;;;2.70;2.50;;;24.40;99.90;;;;;;4064664;29;20224;-75
2022/07/12 00:11:02;;;;;;;2.60;2.40;;;24.50;99.90;;;;;;4056065;29;20245;-76
2022/07/12 00:13:05;;;;;;;2.65;2.45;;;24.40;99.90;;;;;;4065982;29;20233;-76
2022/07/12 00:15:09;;;;;;;2.53;2.33;;;24.40;99.90;;;;;;4063555;29;20220;-76
2022/07/12 00:17:12;;;;;;;2.97;2.78;;;24.40;99.90;;;;;;4060955;29;20221;-76
2022/07/12 00:19:14;;;;;;;2.70;2.30;;;24.40;99.90;;;;;;4065214;29;20252;-76
2022/07/12 00:21:16;;;;;;;2.80;2.50;;;24.40;99.90;;;;;;4065899;29;20287;-76
2022/07/12 00:23:20;;;;;;;2.70;2.15;;;24.40;99.90;;;;;;4066168;29;20220;-75
2022/07/12 00:25:22;;;;;;;2.45;2.25;;;24.40;99.90;;;;;;4065776;29;20292;-75
2022/07/12 00:27:25;;;;;;;2.40;2.20;;;24.40;99.90;;;;;;4066327;29;20224;-76
2022/07/12 00:29:27;;;;;;;2.72;2.53;;;24.40;99.90;;;;;;4063329;29;20685;-75
2022/07/12 00:31:29;;;;;;;2.50;2.30;;;24.40;99.90;;;;;;4065578;29;20220;-76
2022/07/12 00:33:32;;;;;;;3.63;2.30;;;24.40;99.90;;;;;;4065709;29;20268;-76
2022/07/12 00:35:34;;;;;;;2.42;2.22;;;24.40;99.90;;;;;;4065132;29;20233;-76
2022/07/12 00:37:37;;;;;;;2.42;2.22;;;24.40;99.90;;;;;;4065210;29;20232;-76
2022/07/12 00:39:40;;;;;;;2.63;2.20;;;24.40;99.90;;;;;;4064212;29;20224;-76
2022/07/12 00:41:43;;;;;;;2.47;2.28;;;24.40;99.90;;;;;;4060808;29;20643;-76
2022/07/12 00:43:45;;;;;;;3.15;2.25;;;24.40;99.90;;;;;;4065584;29;20267;-76
2022/07/12 00:45:48;;;;;;;2.70;2.38;;;24.30;99.90;;;;;;4060748;29;20221;-75
2022/07/12 00:47:53;;;;;;;2.38;2.17;;;24.30;99.90;;;;;;4062996;29;20217;-76
2022/07/12 00:49:55;;;;;;;2.60;2.40;;;24.30;99.90;;;;;;4065519;29;20983;-76
2022/07/12 00:51:58;;;;;;;2.55;2.20;;;24.30;99.90;;;;;;4065794;29;20288;-76
2022/07/12 00:54:00;;;;;;;2.35;2.15;;;24.30;99.90;;;;;;4060367;29;20233;-76
2022/07/12 00:56:05;;;;;;;2.38;2.13;;;24.30;99.90;;;;;;4065383;29;20221;-76
2022/07/12 00:58:07;;;;;;;2.53;2.33;;;24.30;99.90;;;;;;4065614;29;20303;-76
2022/07/12 01:00:12;;;;;;;2.80;2.42;;;24.30;99.90;;;;;;4065234;29;20232;-76
2022/07/12 01:02:15;;;;;;;2.50;2.30;;;24.30;99.90;;;;;;4053895;29;20666;-76
2022/07/12 01:04:18;;;;;;;2.40;2.20;;;24.30;99.90;;;;;;4064584;29;20281;-75
2022/07/12 01:06:21;;;;;;;2.58;2.38;;;24.30;99.90;;;;;;4059200;29;20296;-76
2022/07/12 01:08:24;;;;;;;2.42;2.22;;;24.30;99.90;;;;;;4065176;29;20217;-75
2022/07/12 01:10:28;;;;;;;2.40;2.20;;;24.30;99.90;;;;;;4065572;29;20224;-77
2022/07/12 01:12:32;;;;;;;2.35;2.10;;;24.30;99.90;;;;;;4065075;29;20252;-75
2022/07/12 01:14:35;;;;;;;2.20;2.00;;;24.30;99.90;;;;;;4065484;29;20220;-75
2022/07/12 01:16:38;;;;;;;2.55;2.35;;;24.30;99.90;;;;;;4060167;29;20221;-75
2022/07/12 01:18:41;;;;;;;2.60;2.25;;;24.20;99.90;;;;;;4062415;29;20239;-75
2022/07/12 01:20:44;;;;;;;3.03;2.28;;;24.30;99.90;;;;;;4058187;29;20271;-75
2022/07/12 01:22:53;;;;;;;2.42;2.22;;;24.30;99.90;;;;;;4061484;29;20272;-75
2022/07/12 01:24:55;;;;;;;2.42;2.22;;;24.30;99.90;;;;;;4065514;29;20224;-75
2022/07/12 01:26:58;;;;;;;2.33;2.13;;;24.30;99.90;;;;;;4065874;29;20731;-75
2022/07/12 01:29:01;;;;;;;2.40;2.15;;;24.20;99.90;;;;;;4055695;29;20725;-75
2022/07/12 01:31:03;;;;;;;2.50;2.30;;;24.20;99.90;;;;;;4065212;29;20679;-75
2022/07/12 01:33:06;;;;;;;2.25;2.05;;;24.20;99.90;;;;;;4065585;29;20248;-75
2022/07/12 01:35:08;;;;;;;2.20;2.00;;;24.20;99.90;;;;;;4065163;29;20212;-76
2022/07/12 01:37:13;;;;;;;2.22;2.03;;;24.20;99.90;;;;;;4062465;29;20642;-76
2022/07/12 01:39:16;;;;;;;2.40;2.20;;;24.20;99.90;;;;;;4062131;29;20713;-76
2022/07/12 01:41:19;;;;;;;2.10;1.90;;;24.20;99.90;;;;;;4065590;29;20236;-75
2022/07/12 01:43:21;;;;;;;2.22;2.03;;;24.20;99.90;;;;;;4057651;29;20217;-75
2022/07/12 01:45:23;;;;;;;2.53;2.30;;;24.20;99.90;;;;;;4063143;29;20535;-75
2022/07/12 01:47:28;;;;;;;2.15;2.05;;;24.20;99.90;;;;;;4065665;29;20296;-75
2022/07/12 01:49:30;;;;;;;2.30;2.10;;;24.20;99.90;;;;;;4065221;29;20228;-75
2022/07/12 01:51:33;;;;;;;2.00;1.90;;;24.20;99.90;;;;;;4065339;29;20300;-75
2022/07/12 01:53:36;;;;;;;2.38;2.13;;;24.20;99.90;;;;;;4062730;29;20256;-75
2022/07/12 01:55:40;;;;;;;2.30;2.10;;;24.20;99.90;;;;;;4064664;29;20252;-75
2022/07/12 01:57:44;;;;;;;2.15;2.05;;;24.20;99.90;;;;;;4066929;29;20220;-75
2022/07/12 01:59:47;;;;;;;2.42;2.22;;;24.20;99.90;;;;;;4068016;29;20221;-75
2022/07/12 02:01:49;;;;;;;2.10;2.00;;;24.20;99.90;;;;;;4067474;29;20224;-75
2022/07/12 02:03:51;;;;;;;2.35;2.13;;;24.20;99.90;;;;;;4068429;29;20220;-75
2022/07/12 02:05:54;;;;;;;2.30;1.98;;;24.20;99.90;;;;;;4068025;29;20288;-75
2022/07/12 02:07:57;;;;;;;2.28;2.08;;;24.20;99.90;;;;;;4068293;29;20275;-75
2022/07/12 02:09:59;;;;;;;2.38;2.03;;;24.20;99.90;;;;;;4068184;29;20633;-75
2022/07/12 02:12:04;;;;;;;2.50;2.30;;;24.20;99.90;;;;;;4066678;29;20275;-75
2022/07/12 02:14:06;;;;;;;2.10;1.90;;;24.20;99.90;;;;;;4067924;29;20307;-75
2022/07/12 02:16:08;;;;;;;2.58;2.15;;;24.20;99.90;;;;;;4064574;29;20221;-75
2022/07/12 02:18:11;;;;;;;2.30;2.10;;;24.20;99.90;;;;;;4065473;29;20213;-75
2022/07/12 02:20:13;;;;;;;1.98;1.80;;;24.20;99.90;;;;;;4065846;29;20276;-75
2022/07/12 02:22:15;;;;;;;2.40;2.20;;;24.20;99.90;;;;;;4066921;29;20221;-75
2022/07/12 02:24:18;;;;;;;3.35;2.00;;;24.10;99.90;;;;;;4067025;29;20269;-75
2022/07/12 02:26:20;;;;;;;2.38;2.17;;;24.10;99.90;;;;;;4066493;29;20229;-75
2022/07/12 02:28:24;;;;;;;1.95;1.85;;;24.10;99.90;;;;;;4064214;29;20216;-75
2022/07/12 02:30:26;;;;;;;3.03;2.28;;;24.10;99.90;;;;;;4066830;29;21111;-75
2022/07/12 02:32:28;;;;;;;2.30;2.10;;;24.10;99.90;;;;;;4066391;29;20216;-75
2022/07/12 02:34:31;;;;;;;2.38;1.92;;;24.10;99.90;;;;;;4066702;29;20764;-75
2022/07/12 02:36:33;;;;;;;2.25;2.05;;;24.10;99.90;;;;;;4065787;29;20224;-75
2022/07/12 02:38:36;;;;;;;2.35;2.00;;;24.10;99.90;;;;;;4066256;29;20277;-75
2022/07/12 02:40:56;;;;;;;1.92;1.77;;;24.10;99.90;;;;;;4066511;29;20220;-75
2022/07/12 02:42:59;;;;;;;1.83;1.73;;;24.10;99.90;;;;;;4066173;29;20291;-75
2022/07/12 02:45:02;;;;;;;2.28;2.08;;;24.10;99.90;;;;;;4065903;29;20272;-75
2022/07/12 02:47:05;;;;;;;2.17;1.98;;;24.10;99.90;;;;;;4066554;29;20216;-75
2022/07/12 02:49:07;;;;;;;1.90;1.70;;;24.10;99.90;;;;;;4066454;29;20256;-75
2022/07/12 02:51:10;;;;;;;2.28;2.00;;;24.10;99.90;;;;;;4066067;29;20228;-74
2022/07/12 02:53:13;;;;;;;2.20;2.00;;;24.10;99.90;;;;;;4065242;29;20315;-74
2022/07/12 02:55:15;;;;;;;2.50;2.30;;;24.10;99.90;;;;;;4065996;29;20316;-75
2022/07/12 02:57:17;;;;;;;2.10;1.90;;;24.10;99.90;;;;;;4065746;29;20220;-75
2022/07/12 02:59:20;;;;;;;2.80;1.92;;;24.10;99.90;;;;;;4064882;29;20283;-74
2022/07/12 03:01:23;;;;;;;2.25;2.03;;;24.10;99.90;;;;;;4065312;29;20268;-75
2022/07/12 03:03:26;;;;;;;2.20;2.10;;;24.10;99.90;;;;;;4064378;29;20217;-75
2022/07/12 03:05:28;;;;;;;1.90;1.80;;;24.10;99.90;;;;;;4065848;29;20289;-75
2022/07/12 03:07:30;;;;;;;2.47;1.90;;;24.00;99.90;;;;;;4066037;29;20284;-75
2022/07/12 03:09:32;;;;;;;2.30;2.10;;;24.00;99.90;;;;;;4064327;29;20719;-75
2022/07/12 03:11:35;;;;;;;2.28;2.08;;;24.10;99.90;;;;;;4066217;29;20622;-75
2022/07/12 03:13:37;;;;;;;2.20;1.98;;;24.10;99.90;;;;;;4066036;29;20288;-76
2022/07/12 03:15:39;;;;;;;4.00;2.25;;;24.00;99.90;;;;;;4065707;29;20224;-76
2022/07/12 03:17:43;;;;;;;2.45;1.90;;;24.00;99.90;;;;;;4065717;29;20628;-76
2022/07/12 03:19:45;;;;;;;2.38;2.00;;;24.00;99.90;;;;;;4064017;29;20331;-75
2022/07/12 03:21:47;;;;;;;1.90;1.80;;;24.00;99.90;;;;;;4065671;29;20630;-76
2022/07/12 03:23:50;;;;;;;1.90;1.80;;;24.00;99.90;;;;;;4065352;29;20224;-75
2022/07/12 03:25:52;;;;;;;2.28;2.08;;;24.00;99.90;;;;;;4065552;29;20618;-75
2022/07/12 03:27:55;;;;;;;2.17;1.73;;;24.00;99.90;;;;;;4063212;29;20272;-76
2022/07/12 03:29:57;;;;;;;1.75;1.65;;;24.00;99.90;;;;;;4065572;29;20276;-76
2022/07/12 03:31:59;;;;;;;2.33;1.98;;;24.00;99.90;;;;;;4065480;29;20252;-75
2022/07/12 03:34:03;;;;;;;1.98;1.88;;;24.00;99.90;;;;;;4065469;29;20334;-75
2022/07/12 03:36:08;;;;;;;2.03;1.90;;;24.00;99.90;;;;;;4062218;29;20224;-75
2022/07/12 03:38:10;;;;;;;1.98;1.80;;;24.00;99.90;;;;;;4065440;29;20298;-75
2022/07/12 03:40:14;;;;;;;2.20;2.00;;;24.00;99.90;;;;;;4065536;29;20276;-75
2022/07/12 03:42:16;;;;;;;2.00;1.90;;;24.00;99.90;;;;;;4065197;29;20225;-75
2022/07/12 03:44:19;;;;;;;2.42;1.98;;;24.00;99.90;;;;;;4064542;29;20217;-75
2022/07/12 03:46:21;;;;;;;1.90;1.80;;;24.00;99.90;;;;;;4064921;29;20229;-75
2022/07/12 03:48:23;;;;;;;2.30;2.10;;;23.90;99.90;;;;;;4063006;29;20224;-75
2022/07/12 03:50:27;;;;;;;3.17;2.20;;;23.90;99.90;;;;;;4065385;29;20275;-75
2022/07/12 03:52:29;;;;;;;2.20;2.00;;;24.00;99.90;;;;;;4064227;29;20263;-75
2022/07/12 03:54:32;;;;;;;1.70;1.60;;;23.90;99.90;;;;;;4064587;29;20295;-75
2022/07/12 03:58:54;;;;;;;2.42;2.08;;;23.90;99.90;;;;;;4064979;29;20646;-75
2022/07/12 04:00:56;;;;;;;2.00;1.80;;;23.90;99.90;;;;;;4064060;29;21056;-75
2022/07/12 04:02:58;;;;;;;2.50;1.70;;;23.90;99.90;;;;;;4065040;29;20268;-75
2022/07/12 04:05:01;;;;;;;2.10;1.90;;;23.90;99.90;;;;;;4064961;29;20213;-75
2022/07/12 04:07:05;;;;;;;2.13;1.92;;;23.90;99.90;;;;;;4064709;29;20713;-75
2022/07/12 04:09:07;;;;;;;2.83;1.90;;;24.00;99.90;;;;;;4064317;29;20221;-75
2022/07/12 04:11:10;;;;;;;2.03;1.92;;;23.90;99.90;;;;;;4063781;29;20272;-75
2022/07/12 04:13:12;;;;;;;2.22;1.88;;;23.90;99.90;;;;;;4065181;29;20288;-75
2022/07/12 04:15:14;;;;;;;2.88;1.80;;;23.90;99.90;;;;;;4064243;29;20244;-75
2022/07/12 04:17:17;;;;;;;2.10;2.00;;;23.90;99.90;;;;;;4063857;29;20220;-75
2022/07/12 04:19:19;;;;;;;2.28;2.08;;;23.90;99.90;;;;;;4064954;29;20268;-75
2022/07/12 04:21:21;;;;;;;1.95;1.85;;;23.90;99.90;;;;;;4064541;29;20225;-75
2022/07/12 04:23:25;;;;;;;2.45;2.20;;;23.90;99.90;;;;;;4063505;29;20271;-75
2022/07/12 04:25:27;;;;;;;2.30;2.00;;;23.90;99.90;;;;;;4062916;29;20280;-75
2022/07/12 04:27:29;;;;;;;3.33;1.80;;;23.90;99.90;;;;;;4062654;29;20264;-75
2022/07/12 04:29:32;;;;;;;2.28;2.08;;;23.90;99.90;;;;;;4065021;29;20228;-76
2022/07/12 04:31:34;;;;;;;2.08;1.90;;;23.90;99.90;;;;;;4064654;29;20224;-75
2022/07/12 04:33:36;;;;;;;1.95;1.75;;;23.90;99.90;;;;;;4064842;29;20229;-75
2022/07/12 04:35:39;;;;;;;2.22;2.03;;;23.90;99.90;;;;;;4063853;29;20815;-75
2022/07/12 04:37:41;;;;;;;2.20;2.00;;;23.90;99.90;;;;;;4065110;29;20271;-75
2022/07/12 04:39:45;;;;;;;1.83;1.67;;;23.90;99.90;;;;;;4064790;29;20353;-75
2022/07/12 04:41:47;;;;;;;2.33;2.13;;;23.90;99.90;;;;;;4064562;29;20288;-75
2022/07/12 04:43:50;;;;;;;3.38;2.17;;;23.90;99.90;;;;;;4064136;29;20260;-75
2022/07/12 04:45:53;;;;;;;2.13;1.92;;;23.90;99.90;;;;;;4064642;29;20252;-75
2022/07/12 04:47:55;;;;;;;4.05;2.33;;;23.90;99.90;;;;;;4064254;29;20228;-75
2022/07/12 04:49:57;;;;;;;2.17;1.98;;;23.90;99.90;;;;;;4064922;29;20276;-75
2022/07/12 04:51:59;;;;;;;2.15;1.92;;;23.90;99.90;;;;;;4064406;29;20288;-75
2022/07/12 04:54:02;;;;;;;1.83;1.73;;;23.90;99.90;;;;;;4064272;29;20228;-75
2022/07/12 04:56:06;;;;;;;2.25;2.05;;;23.90;99.90;;;;;;4064333;29;20228;-75
2022/07/12 04:58:08;;;;;;;2.38;2.17;;;23.90;99.90;;;;;;4060849;29;20232;-75
2022/07/12 05:00:11;;;;;;;2.35;2.15;;;23.90;99.90;;;;;;4064483;29;20220;-75
2022/07/12 05:02:13;;;;;;;2.10;1.90;;;23.90;99.90;;;;;;4063634;29;20681;-76
2022/07/12 05:04:16;;;;;;;4.28;2.00;;;23.90;99.90;;;;;;4064444;29;20224;-75
2022/07/12 05:06:18;;;;;;;2.13;2.00;;;23.90;99.90;;;;;;4064207;29;20710;-75
2022/07/12 05:08:20;;;;;;;2.22;2.03;;;23.90;99.90;;;;;;4064044;29;20677;-75
2022/07/12 05:10:23;;;;;;;2.17;1.98;;;23.90;99.90;;;;;;4064521;29;21030;-75
2022/07/12 05:12:26;;;;;;;3.25;1.90;;;23.90;99.90;;;;;;4064519;29;20212;-75
2022/07/12 05:14:29;;;;;;;2.15;1.95;;;23.90;99.90;;;;;;4063014;29;20288;-74
2022/07/12 05:16:32;;;;;;;2.05;1.92;;;23.90;99.90;;;;;;4064690;29;20272;-75
2022/07/12 05:18:34;;;;;;;2.30;2.10;;;23.90;99.90;;;;;;4062785;29;20765;-75
2022/07/12 05:20:37;;;;;;;4.03;2.38;;;23.90;99.90;;;;;;4064222;29;20224;-75
2022/07/12 05:22:41;;;;;;;2.42;2.10;;;23.90;99.90;;;;;;4064115;29;20264;-75
2022/07/12 05:24:43;;;;;;;2.25;2.05;;;23.90;99.90;;;;;;4064102;29;20257;-75
2022/07/12 05:26:45;;;;;;;4.13;2.05;;;23.90;99.90;;;;;;4063947;29;20272;-75
2022/07/12 05:28:49;;;;;;;2.53;2.10;;;23.90;99.90;;;;;;4064412;29;20276;-76
2022/07/12 05:30:51;;;;;;;2.65;2.33;;;23.90;99.90;;;;;;4064138;29;20248;-75
2022/07/12 05:32:53;;;;;;;2.85;2.25;;;23.90;99.90;;;;;;4065818;29;20216;-75
2022/07/12 05:34:56;;;;;;;2.15;1.95;;;23.90;99.90;;;;;;4065203;29;20240;-75
2022/07/12 05:36:58;;;;;;;2.10;1.90;;;24.00;99.90;;;;;;4067475;29;20223;-75
2022/07/12 05:39:00;;;;;;;2.20;2.00;;;23.90;99.90;;;;;;4067537;29;20216;-75
2022/07/12 05:41:03;;;;;;;2.50;2.00;;;23.90;99.90;;;;;;4067607;29;20220;-75
2022/07/12 05:43:05;;;;;;;2.47;2.13;;;24.00;99.90;;;;;;4067077;29;20284;-74
2022/07/12 05:45:09;;;;;;;2.40;2.17;;;24.00;99.90;;;;;;4067400;29;20253;-74
2022/07/12 05:47:12;;;;;;;2.45;2.25;;;24.00;99.90;;;;;;4067062;29;20275;-74
2022/07/12 05:49:14;;;;;;;2.63;2.33;;;24.00;99.90;;;;;;4067412;29;20598;-75
2022/07/12 05:53:32;;;;;;;2.13;1.92;;;24.00;99.90;;;;;;4043850;29;20756;-75
2022/07/12 05:55:35;;;;;;;2.45;2.25;;;24.00;99.90;;;;;;4066996;29;20851;-75
2022/07/12 05:57:37;;;;;;;2.13;2.00;;;24.00;99.90;;;;;;4067025;29;20733;-75
2022/07/12 05:59:39;;;;;;;2.28;2.08;;;24.00;99.90;;;;;;4066664;29;20224;-75
2022/07/12 06:01:43;;;;;;;2.03;1.92;;;24.00;99.90;;;;;;4067366;29;20283;-75
2022/07/12 06:03:45;;;;;;;2.40;2.17;;;24.00;99.90;;;;;;4067274;29;20224;-76
2022/07/12 06:05:48;;;;;;;2.33;2.13;;;24.00;99.90;;;;;;4066627;29;20232;-76
2022/07/12 06:07:50;;;;;;;2.33;2.13;;;24.00;99.90;;;;;;4066897;29;20216;-75
2022/07/12 06:09:53;;;;;;;2.65;2.28;;;24.00;99.90;;;;;;4065733;29;20228;-75
2022/07/12 06:11:55;;;;;;;2.15;1.95;;;24.00;99.90;;;;;;4066820;29;20557;-75
2022/07/12 06:13:57;;;;;;;2.22;2.03;;;24.00;99.90;;;;;;4065602;29;20320;-75
2022/07/12 06:16:00;;;;;;;2.47;2.28;;;24.00;99.90;;;;;;4064704;29;20244;-75
2022/07/12 06:18:04;;;;;;;2.50;2.30;;;24.00;99.90;;;;;;4064931;29;20288;-75
2022/07/12 06:20:07;;;;;;;2.28;2.13;;;24.00;99.90;;;;;;4066693;29;20224;-75
2022/07/12 06:22:10;;;;;;;3.33;2.35;;;24.00;99.90;;;;;;4065882;29;20724;-75
2022/07/12 06:24:12;;;;;;;2.50;2.30;;;24.00;99.90;;;;;;4066510;29;20220;-76
2022/07/12 06:26:14;;;;;;;3.63;2.03;;;24.00;99.90;;;;;;4065250;29;20212;-76
2022/07/12 06:28:19;;;;;;;2.30;2.10;;;24.00;99.90;;;;;;4066639;29;20280;-75
2022/07/12 06:30:22;;;;;;;2.63;2.38;;;24.00;99.90;;;;;;4066281;29;20635;-75
2022/07/12 06:32:24;;;;;;;2.20;2.00;;;24.00;99.90;;;;;;4066540;29;20272;-75
2022/07/12 06:34:28;;;;;;;2.25;2.05;;;24.00;99.90;;;;;;4065400;29;20272;-75
2022/07/12 06:36:30;;;;;;;2.53;2.33;;;24.10;99.90;;;;;;4065898;29;20259;-75
2022/07/12 06:38:33;;;;;;;3.25;2.60;;;24.00;99.90;;;;;;4065243;29;20224;-75
2022/07/12 06:40:35;;;;;;;2.53;2.33;;;24.00;99.90;;;;;;4066395;29;20677;-75
2022/07/12 06:42:37;;;;;;;2.90;2.67;;;24.00;99.90;;;;;;4065562;29;20716;-76
2022/07/12 06:44:39;;;;;;;3.35;2.58;;;24.10;99.90;;;;;;4065906;29;20260;-75
2022/07/12 06:46:42;;;;;;;3.17;2.88;;;24.00;99.90;;;;;;4066719;29;20763;-76
2022/07/12 06:48:44;;;;;;;2.53;2.33;;;24.00;99.90;;;;;;4066470;29;20280;-75
2022/07/12 06:50:48;;;;;;;2.70;2.50;;;24.00;99.90;;;;;;4066057;29;20276;-76
2022/07/12 06:52:50;;;;;;;2.60;2.40;;;24.10;99.90;;;;;;4066155;29;20618;-75
2022/07/12 06:54:52;;;;;;;2.47;2.28;;;24.00;99.90;;;;;;4066676;29;20713;-75
2022/07/12 06:56:54;;;;;;;3.00;2.72;;;24.00;99.90;;;;;;4066317;29;20272;-75
2022/07/12 06:58:57;;;;;;;5.28;4.78;;;24.10;99.90;;;;;;4061829;29;20225;-75
2022/07/12 07:00:59;;;;;;;6.35;5.75;;;23.90;99.90;;;;;;4061776;29;20249;-76
2022/07/12 07:03:01;;;;;;;7.55;5.38;;;23.80;99.90;;;;;;4065065;29;20631;-76
2022/07/12 07:05:04;;;;;;;6.93;5.50;;;23.70;99.90;;;;;;4065311;29;21001;-75
2022/07/12 07:07:07;;;;;;;7.10;6.00;;;23.60;99.90;;;;;;4065453;29;20236;-75
2022/07/12 07:09:10;;;;;;;9.55;6.45;;;23.70;99.90;;;;;;4064305;29;20232;-71
2022/07/12 07:11:12;;;;;;;7.47;5.97;;;23.70;99.90;;;;;;4064207;29;20212;-72
2022/07/12 07:13:15;;;;;;;7.65;6.05;;;23.70;99.90;;;;;;4064474;29;20225;-72
2022/07/12 07:15:17;;;;;;;7.03;6.43;;;23.80;99.90;;;;;;4061435;29;20220;-71
2022/07/12 07:17:20;;;;;;;9.95;6.13;;;23.80;99.90;;;;;;4064644;29;21098;-71
2022/07/12 07:19:24;;;;;;;6.43;5.82;;;23.80;99.90;;;;;;4064658;29;20233;-72
2022/07/12 07:21:26;;;;;;;7.25;6.55;;;23.80;99.90;;;;;;4064388;29;20228;-72
2022/07/12 07:23:30;;;;;;;10.02;6.10;;;23.80;99.90;;;;;;4060847;29;20220;-74
2022/07/12 07:25:32;;;;;;;7.43;6.72;;;23.80;99.90;;;;;;4061323;29;20628;-74
2022/07/12 07:27:34;;;;;;;7.80;6.63;;;23.90;99.90;;;;;;4064267;29;20749;-73
2022/07/12 07:31:57;;;;;;;7.28;6.32;;;23.90;99.90;;;;;;4061995;29;20204;-72
2022/07/12 07:33:59;;;;;;;7.53;6.28;;;23.70;99.90;;;;;;4048936;29;20665;-72
2022/07/12 07:36:01;;;;;;;7.13;6.40;;;23.60;99.90;;;;;;4058948;29;20245;-71
2022/07/12 07:38:03;;;;;;;7.10;6.38;;;23.70;99.90;;;;;;4060747;29;20225;-72
2022/07/12 07:40:09;;;;;;;7.93;6.57;;;23.80;99.90;;;;;;4059152;29;20220;-71
2022/07/12 07:42:11;;;;;;;8.38;7.38;;;23.70;99.90;;;;;;4059855;29;20229;-71
2022/07/12 07:44:14;;;;;;;7.07;6.50;;;23.60;99.90;;;;;;4063125;29;20685;-72
2022/07/12 07:46:16;;;;;;;11.27;6.82;;;23.50;99.90;;;;;;4060766;29;20284;-72
2022/07/12 07:48:19;;;;;;;7.50;6.80;;;23.50;99.90;;;;;;4064304;29;20217;-73
2022/07/12 07:50:21;;;;;;;8.65;7.22;;;23.50;99.90;;;;;;4057513;29;20260;-73
2022/07/12 07:52:24;;;;;;;7.70;7.00;;;23.60;99.90;;;;;;4057745;29;20213;-72
2022/07/12 07:54:26;;;;;;;7.65;6.85;;;23.50;99.90;;;;;;4062837;29;20228;-77
2022/07/12 07:56:30;;;;;;;7.68;6.97;;;23.60;99.90;;;;;;4053642;29;20236;-75
2022/07/12 07:58:32;;;;;;;7.50;6.80;;;23.60;99.90;;;;;;4059673;29;20229;-76
2022/07/12 08:00:35;;;;;;;6.90;6.07;;;23.70;99.90;;;;;;4059481;29;20284;-75
2022/07/12 08:02:37;;;;;;;7.30;6.57;;;23.80;99.90;;;;;;4058304;29;20233;-75
2022/07/12 08:04:39;;;;;;;7.20;6.50;;;23.70;99.90;;;;;;4060525;29;20217;-76
2022/07/12 08:06:42;;;;;;;6.90;6.20;;;23.70;99.90;;;;;;4056807;29;20299;-75
2022/07/12 08:08:45;;;;;;;10.07;6.35;;;23.70;99.90;;;;;;4055722;29;20220;-74
2022/07/12 08:10:49;;;;;;;6.82;6.20;;;23.70;99.90;;;;;;4059556;29;20669;-72
2022/07/12 08:12:53;;;;;;;7.10;6.40;;;23.70;99.90;;;;;;4060713;29;20220;-72
2022/07/12 08:14:55;;;;;;;7.07;6.47;;;23.80;99.90;;;;;;4053265;29;20220;-72
2022/07/12 08:16:58;;;;;;;6.93;6.40;;;23.70;99.90;;;;;;4056107;29;20236;-74
2022/07/12 08:19:00;;;;;;;6.68;6.07;;;23.70;99.90;;;;;;4061231;29;20217;-74
2022/07/12 08:21:03;;;;;;;6.68;6.07;;;23.80;99.90;;;;;;4058345;29;20280;-74
2022/07/12 08:23:05;;;;;;;7.10;6.28;;;23.80;99.90;;;;;;4057614;29;20216;-73
2022/07/12 08:25:08;;;;;;;7.28;6.35;;;23.80;99.90;;;;;;4060787;29;20228;-72
2022/07/12 08:27:11;;;;;;;14.23;7.30;;;23.80;99.90;;;;;;4060255;29;20216;-73
2022/07/12 08:29:14;;;;;;;6.95;6.25;;;23.80;99.90;;;;;;4058048;29;20221;-72
2022/07/12 08:31:17;;;;;;;7.22;6.22;;;23.90;99.90;;;;;;4060254;29;20220;-72
2022/07/12 08:33:19;;;;;;;6.90;6.05;;;23.80;99.90;;;;;;4057591;29;20224;-73
2022/07/12 08:35:21;;;;;;;7.43;6.20;;;23.90;99.90;;;;;;4057201;29;20268;-73
2022/07/12 08:37:24;;;;;;;7.47;5.95;;;23.90;99.90;;;;;;4058587;29;20236;-72
2022/07/12 08:39:26;;;;;;;10.98;6.60;;;24.00;99.90;;;;;;4059980;29;20774;-73
2022/07/12 08:41:29;;;;;;;6.50;5.57;;;24.00;99.90;;;;;;4057689;29;20225;-74
2022/07/12 08:43:35;;;;;;;6.97;6.07;;;24.10;99.90;;;;;;4060758;29;20224;-73
2022/07/12 08:45:40;;;;;;;6.63;6.03;;;24.20;99.90;;;;;;4060866;29;20702;-74
2022/07/12 08:47:42;;;;;;;6.93;5.78;;;24.10;99.90;;;;;;4061313;29;20301;-74
2022/07/12 08:50:12;;;;;;;6.38;5.80;;;24.10;99.90;;;;;;4059808;29;20217;-75
2022/07/12 08:52:26;;;;;;;6.72;6.03;;;24.20;99.90;;;;;;4054272;29;20220;-75
2022/07/12 08:54:39;;;;;;;9.00;6.35;;;24.10;99.90;;;;;;4059129;29;20233;-76
2022/07/12 08:56:44;;;;;;;6.60;5.90;;;24.10;99.90;;;;;;4057017;29;20240;-75
2022/07/12 08:58:46;;;;;;;7.55;6.00;;;24.10;99.90;;;;;;4053464;29;20659;-77
2022/07/12 09:00:52;;;;;;;6.53;5.95;;;24.10;99.90;;;;;;4059074;29;20566;-75
2022/07/12 09:02:55;;;;;;;6.78;6.18;;;24.20;99.90;;;;;;4053143;29;20261;-75
2022/07/12 09:05:08;;;;;;;6.93;6.15;;;24.20;99.90;;;;;;4059835;29;20260;-72
2022/07/12 09:07:16;;;;;;;8.07;6.55;;;24.20;99.90;;;;;;4060500;29;20227;-74
2022/07/12 09:09:28;;;;;;;7.10;5.80;;;24.20;99.90;;;;;;4061062;29;20251;-77
2022/07/12 09:11:30;;;;;;;7.18;6.30;;;24.30;99.90;;;;;;4059048;29;20642;-76
2022/07/12 09:13:53;;;;;;;7.05;6.20;;;24.50;99.90;;;;;;4061276;29;20280;-76
2022/07/12 09:16:13;;;;;;;7.40;6.13;;;24.50;99.90;;;;;;4057987;29;20224;-76
2022/07/12 09:18:17;;;;;;;6.50;5.90;;;24.40;99.90;;;;;;4060197;29;20243;-75
2022/07/12 09:20:19;;;;;;;6.05;5.45;;;24.30;99.90;;;;;;4061928;29;20204;-75
2022/07/12 09:22:22;;;;;;;8.95;5.90;;;24.30;99.90;;;;;;4056410;29;20268;-75
2022/07/12 09:24:26;;;;;;;5.85;5.22;;;24.30;99.90;;;;;;4059392;29;20228;-75
2022/07/12 09:26:31;;;;;;;6.88;5.60;;;24.30;99.90;;;;;;4048454;29;21069;-75
2022/07/12 09:28:34;;;;;;;5.97;5.43;;;24.40;99.90;;;;;;4056874;29;20228;-77
2022/07/12 09:30:38;;;;;;;7.88;5.72;;;24.50;99.90;;;;;;4060888;29;20220;-74
2022/07/12 09:37:40;;;;;;;6.85;5.65;;;24.70;99.90;;;;;;4061535;29;20224;-75
2022/07/12 09:39:43;;;;;;;6.85;5.82;;;24.60;99.90;;;;;;4062413;29;20765;-74
2022/07/12 09:41:46;;;;;;;5.65;5.15;;;24.60;99.90;;;;;;4061982;29;20225;-75
2022/07/12 09:43:49;;;;;;;5.63;5.13;;;24.60;99.90;;;;;;4055342;29;20224;-75
2022/07/12 09:45:51;;;;;;;5.72;5.18;;;24.50;99.90;;;;;;4059403;29;20276;-75
2022/07/12 09:47:55;;;;;;;8.10;5.20;;;24.60;99.90;;;;;;4061002;29;20550;-75
2022/07/12 09:49:58;;;;;;;6.60;5.50;;;24.70;99.90;;;;;;4059037;29;20287;-76
2022/07/12 09:52:02;;;;;;;5.55;4.95;;;24.80;99.90;;;;;;4060616;29;21060;-76
2022/07/12 09:54:07;;;;;;;6.07;5.38;;;24.90;99.90;;;;;;4059930;29;20224;-75
2022/07/12 09:56:12;;;;;;;6.80;4.88;;;24.90;99.90;;;;;;4062274;29;20221;-74
2022/07/12 09:58:15;;;;;;;6.10;5.50;;;25.00;99.90;;;;;;4059148;29;20295;-76
2022/07/12 10:00:17;;;;;;;5.05;4.65;;;25.00;99.90;;;;;;4060046;29;20276;-75
2022/07/12 10:02:22;;;;;;;5.53;5.03;;;25.00;99.90;;;;;;4061522;29;20277;-75
2022/07/12 10:04:30;;;;;;;6.22;5.15;;;25.10;99.90;;;;;;4055747;29;20825;-75
2022/07/12 10:06:32;;;;;;;5.50;5.00;;;25.20;99.90;;;;;;4059633;29;20247;-74
2022/07/12 10:08:35;;;;;;;13.45;5.30;;;25.10;99.90;;;;;;4057716;29;20224;-75
2022/07/12 10:10:39;;;;;;;5.78;4.45;;;25.10;99.90;;;;;;4052309;29;20225;-72
2022/07/12 10:12:41;;;;;;;5.10;4.70;;;25.20;99.90;;;;;;4057462;29;20279;-73
2022/07/12 10:14:45;;;;;;;5.03;4.63;;;25.10;99.90;;;;;;4057940;29;20678;-73
2022/07/12 10:16:51;;;;;;;5.47;4.50;;;25.20;99.90;;;;;;4060246;29;20220;-73
2022/07/12 10:19:28;;;;;;;5.13;4.47;;;25.20;99.90;;;;;;4062060;29;20271;-73
2022/07/12 10:21:30;;;;;;;6.55;4.75;;;25.10;99.90;;;;;;4061170;29;20224;-73
2022/07/12 10:23:35;;;;;;;5.20;4.70;;;25.20;99.90;;;;;;4059398;29;20271;-73
2022/07/12 10:25:37;;;;;;;5.88;5.00;;;25.20;99.90;;;;;;4063478;29;20220;-74
2022/07/12 10:27:40;;;;;;;5.85;4.80;;;25.30;99.90;;;;;;4064887;29;20685;-76
2022/07/12 10:29:43;;;;;;;4.80;4.00;;;25.30;99.90;;;;;;4067005;29;20217;-76
2022/07/12 10:31:47;;;;;;;5.18;4.47;;;25.30;99.90;;;;;;4054098;29;20216;-75
2022/07/12 10:33:59;;;;;;;5.60;4.38;;;25.30;99.90;;;;;;4067127;29;20225;-74
2022/07/12 10:36:06;;;;;;;5.13;4.25;;;25.30;99.90;;;;;;4063775;29;20276;-75
2022/07/12 10:38:21;;;;;;;4.72;4.05;;;25.30;99.90;;;;;;4059776;29;20302;-76
2022/07/12 10:40:23;;;;;;;4.38;3.97;;;25.20;99.90;;;;;;4061499;29;20261;-76
2022/07/12 10:42:26;;;;;;;5.03;4.00;;;25.20;99.90;;;;;;4064509;29;20295;-76
2022/07/12 10:44:35;;;;;;;4.75;4.35;;;25.30;99.90;;;;;;4065955;29;20300;-76
2022/07/12 10:46:37;;;;;;;5.47;4.13;;;25.30;99.90;;;;;;4062673;29;20994;-76
2022/07/12 10:48:39;;;;;;;4.28;3.88;;;25.30;99.90;;;;;;4060861;29;20276;-76
2022/07/12 10:50:56;;;;;;;4.63;4.13;;;25.30;99.90;;;;;;4066038;29;20284;-76
2022/07/12 10:53:21;;;;;;;5.72;3.92;;;25.30;99.90;;;;;;4060613;29;20220;-77